createdAt,value
2023-12-28T00:00:29.368Z,73.24
2023-12-28T00:02:57.172Z,73.03
2023-12-28T00:05:25.155Z,73.01
2023-12-28T00:07:58.860Z,73.23
2023-12-28T00:10:28.649Z,73.34
2023-12-28T00:12:56.866Z,73.67
2023-12-28T00:15:26.411Z,73.14
2023-12-28T00:17:54.319Z,72.95
2023-12-28T00:20:22.346Z,72.24
2023-12-28T00:22:50.132Z,72.99
2023-12-28T00:25:18.004Z,72.95
2023-12-28T00:27:46.928Z,73.24
2023-12-28T00:30:16.058Z,73.84
2023-12-28T00:32:47.120Z,72.91
2023-12-28T00:35:15.232Z,72.63
2023-12-28T00:37:43.263Z,72.87
2023-12-28T00:40:13.528Z,73.72
2023-12-28T00:42:42.155Z,73.20
2023-12-28T00:45:10.932Z,73.91
2023-12-28T00:47:39.045Z,74.26
2023-12-28T00:50:09.033Z,73.85
2023-12-28T00:52:37.676Z,74.27
2023-12-28T00:55:06.398Z,74.63
2023-12-28T00:57:34.356Z,73.93
2023-12-28T01:00:02.930Z,74.00
2023-12-28T01:02:30.803Z,74.57
2023-12-28T01:04:58.649Z,74.80
2023-12-28T01:07:28.286Z,75.11
2023-12-28T01:09:56.276Z,74.25
2023-12-28T01:12:25.788Z,74.19
2023-12-28T01:14:53.596Z,74.61
2023-12-28T01:17:21.413Z,74.77
2023-12-28T01:19:49.458Z,74.63
2023-12-28T01:22:18.245Z,74.43
2023-12-28T01:24:50.775Z,74.69
2023-12-28T01:27:18.822Z,75.19
2023-12-28T01:29:46.741Z,74.62
2023-12-28T01:32:14.622Z,74.19
2023-12-28T01:34:43.540Z,73.83
2023-12-28T01:37:11.512Z,74.46
2023-12-28T01:39:39.403Z,74.83
2023-12-28T01:42:08.681Z,75.07
2023-12-28T01:44:36.479Z,75.36
2023-12-28T01:47:04.697Z,75.62
2023-12-28T01:49:34.541Z,75.05
2023-12-28T01:52:03.984Z,75.54
2023-12-28T01:54:32.421Z,75.41
2023-12-28T01:57:02.385Z,75.99
2023-12-28T01:59:32.174Z,76.32
2023-12-28T02:02:00.340Z,75.65
2023-12-28T02:04:30.180Z,75.56
2023-12-28T02:06:59.795Z,76.30
2023-12-28T02:09:28.254Z,76.03
2023-12-28T02:11:56.769Z,75.65
2023-12-28T02:14:25.086Z,75.96
2023-12-28T02:17:02.853Z,75.86
2023-12-28T02:19:40.264Z,75.41
2023-12-28T02:22:10.194Z,75.65
2023-12-28T02:27:31.235Z,75.53
2023-12-28T02:30:00.339Z,75.34
2023-12-28T02:32:38.762Z,75.85
2023-12-28T02:35:17.255Z,75.95
2023-12-28T02:37:46.534Z,76.63
2023-12-28T02:40:17.545Z,76.79
2023-12-28T02:42:46.671Z,76.57
2023-12-28T02:45:15.656Z,76.97
2023-12-28T02:47:45.221Z,76.61
2023-12-28T02:50:13.200Z,76.05
2023-12-28T02:52:40.097Z,76.71
2023-12-28T02:55:09.088Z,76.52
2023-12-28T02:57:38.929Z,76.31
2023-12-28T03:00:09.876Z,76.53
2023-12-28T03:02:38.578Z,77.24
2023-12-28T03:05:08.048Z,76.64
2023-12-28T03:07:37.888Z,76.56
2023-12-28T03:10:06.613Z,76.62
2023-12-28T03:12:34.771Z,75.91
2023-12-28T03:15:02.669Z,76.17
2023-12-28T03:17:33.750Z,75.91
2023-12-28T03:20:01.885Z,76.03
2023-12-28T03:22:29.774Z,75.77
2023-12-28T03:24:57.619Z,75.33
2023-12-28T03:27:26.071Z,75.74
2023-12-28T03:29:53.972Z,75.89
2023-12-28T03:32:21.857Z,76.44
2023-12-28T03:34:52.508Z,76.35
2023-12-28T03:37:20.310Z,76.88
2023-12-28T03:39:48.372Z,76.03
2023-12-28T03:42:16.532Z,75.80
2023-12-28T03:44:45.057Z,75.72
2023-12-28T03:47:12.877Z,75.69
2023-12-28T03:49:41.546Z,75.51
2023-12-28T03:52:10.786Z,75.08
2023-12-28T03:54:39.015Z,74.71
2023-12-28T03:57:06.873Z,74.22
2023-12-28T03:59:34.740Z,73.91
2023-12-28T04:02:02.527Z,74.02
2023-12-28T04:04:30.943Z,73.63
2023-12-28T04:06:58.866Z,73.72
2023-12-28T04:09:28.163Z,74.03
2023-12-28T04:11:56.039Z,73.45
2023-12-28T04:14:24.177Z,73.99
2023-12-28T04:16:52.050Z,73.50
2023-12-28T04:19:21.383Z,73.09
2023-12-28T04:21:49.553Z,73.78
2023-12-28T04:24:17.426Z,72.96
2023-12-28T04:26:46.610Z,73.41
2023-12-28T04:29:14.884Z,72.55
2023-12-28T04:31:43.983Z,72.56
2023-12-28T04:34:11.968Z,72.10
2023-12-28T04:36:44.154Z,72.56
2023-12-28T04:39:12.042Z,72.63
2023-12-28T04:41:39.905Z,72.55
2023-12-28T04:44:09.123Z,72.56
2023-12-28T04:46:41.277Z,72.52
2023-12-28T04:49:10.382Z,72.30
2023-12-28T04:51:38.273Z,71.77
2023-12-28T04:54:06.422Z,71.77
2023-12-28T04:56:34.196Z,71.24
2023-12-28T04:59:02.098Z,70.83
2023-12-28T05:01:32.742Z,71.39
2023-12-28T05:04:01.118Z,71.38
2023-12-28T05:06:30.278Z,71.31
2023-12-28T05:08:58.188Z,71.65
2023-12-28T05:11:26.010Z,71.81
2023-12-28T05:13:53.796Z,72.09
2023-12-28T05:16:22.073Z,71.90
2023-12-28T05:18:51.391Z,71.49
2023-12-28T05:21:19.654Z,71.24
2023-12-28T05:23:47.506Z,71.63
2023-12-28T05:26:15.293Z,72.00
2023-12-28T05:28:43.108Z,71.43
2023-12-28T05:31:10.955Z,71.37
2023-12-28T05:33:38.850Z,72.10
2023-12-28T05:36:11.581Z,72.58
2023-12-28T05:38:40.062Z,71.87
2023-12-28T05:41:07.903Z,72.04
2023-12-28T05:43:35.699Z,72.01
2023-12-28T05:46:03.571Z,72.08
2023-12-28T05:48:31.483Z,71.66
2023-12-28T05:50:59.574Z,71.56
2023-12-28T05:53:30.370Z,71.79
2023-12-28T05:55:58.095Z,71.35
2023-12-28T05:58:25.840Z,71.57
2023-12-28T06:00:55.576Z,71.64
2023-12-28T06:03:23.430Z,71.57
2023-12-28T06:05:51.268Z,71.63
2023-12-28T06:08:19.059Z,71.24
2023-12-28T06:10:48.176Z,71.85
2023-12-28T06:13:16.062Z,71.40
2023-12-28T06:15:44.842Z,72.30
2023-12-28T06:18:13.345Z,72.33
2023-12-28T06:20:41.462Z,72.15
2023-12-28T06:23:09.931Z,72.09
2023-12-28T06:25:37.721Z,71.81
2023-12-28T06:28:07.322Z,72.46
2023-12-28T06:30:35.275Z,71.99
2023-12-28T06:33:03.179Z,72.05
2023-12-28T06:35:31.089Z,71.48
2023-12-28T06:37:59.082Z,71.60
2023-12-28T06:40:27.004Z,71.98
2023-12-28T06:42:54.968Z,71.71
2023-12-28T06:45:28.922Z,71.49
2023-12-28T06:47:57.221Z,71.59
2023-12-28T06:50:25.278Z,70.90
2023-12-28T06:52:53.023Z,71.18
2023-12-28T06:55:20.801Z,70.82
2023-12-28T06:57:48.611Z,70.89
2023-12-28T07:00:16.900Z,70.52
2023-12-28T07:02:46.268Z,70.58
2023-12-28T07:05:15.220Z,70.57
2023-12-28T07:07:43.229Z,70.19
2023-12-28T07:10:11.240Z,70.59
2023-12-28T07:12:39.159Z,70.84
2023-12-28T07:15:07.524Z,70.67
2023-12-28T07:17:35.391Z,70.60
2023-12-28T07:20:05.272Z,70.02
2023-12-28T07:22:33.595Z,69.83
2023-12-28T07:25:01.560Z,69.82
2023-12-28T07:27:29.421Z,69.96
2023-12-28T07:29:57.448Z,69.52
2023-12-28T07:32:27.296Z,69.15
2023-12-28T07:34:55.370Z,70.13
2023-12-28T07:37:24.579Z,70.21
2023-12-28T07:39:52.551Z,70.13
2023-12-28T07:42:20.336Z,70.60
2023-12-28T07:44:48.225Z,70.53
2023-12-28T07:47:16.316Z,70.72
2023-12-28T07:49:44.703Z,70.57
2023-12-28T07:52:12.540Z,70.74
2023-12-28T07:54:41.800Z,70.80
2023-12-28T07:57:10.132Z,70.74
2023-12-28T07:59:37.934Z,70.21
2023-12-28T08:02:05.985Z,70.39
2023-12-28T08:04:33.855Z,70.11
2023-12-28T08:07:02.001Z,69.87
2023-12-28T08:09:30.329Z,70.17
2023-12-28T08:11:59.494Z,70.03
2023-12-28T08:14:28.488Z,69.91
2023-12-28T08:16:56.247Z,70.02
2023-12-28T08:19:24.077Z,69.98
2023-12-28T08:21:51.994Z,70.17
2023-12-28T08:24:19.821Z,69.43
2023-12-28T08:26:47.801Z,69.48
2023-12-28T08:29:17.000Z,69.17
2023-12-28T08:31:48.227Z,69.61
2023-12-28T08:34:16.702Z,69.44
2023-12-28T08:36:44.585Z,69.44
2023-12-28T08:39:12.424Z,70.02
2023-12-28T08:41:40.230Z,69.58
2023-12-28T08:44:07.993Z,69.62
2023-12-28T08:46:37.172Z,69.14
2023-12-28T08:49:05.202Z,69.20
2023-12-28T08:51:33.250Z,68.58
2023-12-28T08:54:01.096Z,69.42
2023-12-28T08:56:28.869Z,69.59
2023-12-28T08:58:56.586Z,69.36
2023-12-28T09:01:26.467Z,69.07
2023-12-28T09:03:56.387Z,68.68
2023-12-28T09:06:24.848Z,68.50
2023-12-28T09:08:54.630Z,68.80
2023-12-28T09:11:23.033Z,69.01
2023-12-28T09:13:50.921Z,69.18
2023-12-28T09:16:19.312Z,68.88
2023-12-28T09:18:47.463Z,68.84
2023-12-28T09:21:16.775Z,69.05
2023-12-28T09:23:44.607Z,68.65
2023-12-28T09:26:12.373Z,68.82
2023-12-28T09:28:41.146Z,69.32
2023-12-28T09:31:09.214Z,69.02
2023-12-28T09:33:37.775Z,69.47
2023-12-28T09:36:06.465Z,69.50
2023-12-28T09:38:35.740Z,69.97
2023-12-28T09:41:13.228Z,69.39
2023-12-28T09:43:51.578Z,69.57
2023-12-28T09:46:19.603Z,69.64
2023-12-28T09:48:48.133Z,68.96
2023-12-28T09:51:17.550Z,69.49
2023-12-28T09:53:48.271Z,69.33
2023-12-28T09:56:16.250Z,69.47
2023-12-28T09:58:46.214Z,69.33
2023-12-28T10:01:16.938Z,69.90
2023-12-28T10:03:45.112Z,69.56
2023-12-28T10:06:12.982Z,69.47
2023-12-28T10:08:48.921Z,68.86
2023-12-28T10:11:17.738Z,69.62
2023-12-28T10:13:45.712Z,69.37
2023-12-28T10:16:14.070Z,69.59
2023-12-28T10:18:43.753Z,69.45
2023-12-28T10:21:13.909Z,69.82
2023-12-28T10:23:42.459Z,69.79
2023-12-28T10:26:11.950Z,69.74
2023-12-28T10:28:40.770Z,69.32
2023-12-28T10:31:10.237Z,69.17
2023-12-28T10:33:38.898Z,68.84
2023-12-28T10:36:09.061Z,68.83
2023-12-28T10:38:38.633Z,68.89
2023-12-28T10:41:09.612Z,69.04
2023-12-28T10:43:47.701Z,69.30
2023-12-28T10:46:24.491Z,69.34
2023-12-28T10:49:00.259Z,68.88
2023-12-28T10:51:30.002Z,68.88
2023-12-28T10:54:12.664Z,68.58
2023-12-28T10:56:45.839Z,69.16
2023-12-28T10:59:23.483Z,69.26
2023-12-28T11:01:56.058Z,68.99
2023-12-28T11:04:31.528Z,69.26
2023-12-28T11:07:02.053Z,69.16
2023-12-28T11:09:33.551Z,69.47
2023-12-28T11:12:03.265Z,69.42
2023-12-28T11:14:33.342Z,68.99
2023-12-28T11:17:02.345Z,69.63
2023-12-28T11:19:31.138Z,69.92
2023-12-28T11:22:01.240Z,69.98
2023-12-28T11:24:30.524Z,69.66
2023-12-28T11:26:58.707Z,69.38
2023-12-28T11:29:27.110Z,69.59
2023-12-28T11:31:57.045Z,70.04
2023-12-28T11:34:28.025Z,69.86
2023-12-28T11:36:58.605Z,70.00
2023-12-28T11:39:34.773Z,69.82
2023-12-28T11:42:04.281Z,70.31
2023-12-28T11:44:32.892Z,69.98
2023-12-28T11:47:12.610Z,70.34
2023-12-28T11:49:41.872Z,70.53
2023-12-28T11:52:12.158Z,70.59
2023-12-28T11:54:40.023Z,70.81
2023-12-28T11:57:08.161Z,70.74
2023-12-28T11:59:35.997Z,70.75
2023-12-28T12:02:08.500Z,70.94
2023-12-28T12:04:36.813Z,70.01
2023-12-28T12:07:05.448Z,70.55
2023-12-28T12:09:35.809Z,70.91
2023-12-28T12:12:04.264Z,70.16
2023-12-28T12:14:32.803Z,70.02
2023-12-28T12:17:00.655Z,70.02
2023-12-28T12:19:30.520Z,70.38
2023-12-28T12:21:59.208Z,70.89
2023-12-28T12:24:27.022Z,72.03
2023-12-28T12:26:55.314Z,72.19
2023-12-28T12:29:29.114Z,71.69
2023-12-28T12:31:58.777Z,72.00
2023-12-28T12:34:26.887Z,71.68
2023-12-28T12:36:56.834Z,71.51
2023-12-28T12:39:26.102Z,71.10
2023-12-28T12:41:54.275Z,70.65
2023-12-28T12:44:22.197Z,70.20
2023-12-28T12:46:50.017Z,69.76
2023-12-28T12:49:19.141Z,70.01
2023-12-28T12:51:47.672Z,69.28
2023-12-28T12:54:19.840Z,69.46
2023-12-28T12:56:47.992Z,68.88
2023-12-28T12:59:18.420Z,68.89
2023-12-28T13:01:46.636Z,68.33
2023-12-28T13:04:15.533Z,68.34
2023-12-28T13:06:43.539Z,68.07
2023-12-28T13:09:12.466Z,68.46
2023-12-28T13:11:42.019Z,68.36
2023-12-28T13:14:09.802Z,68.34
2023-12-28T13:16:37.576Z,67.94
2023-12-28T13:19:05.767Z,68.62
2023-12-28T13:21:34.132Z,68.14
2023-12-28T13:24:03.554Z,67.81
2023-12-28T13:26:31.525Z,68.29
2023-12-28T13:29:02.077Z,68.68
2023-12-28T13:31:31.824Z,68.11
2023-12-28T13:34:00.167Z,68.24
2023-12-28T13:36:29.609Z,68.27
2023-12-28T13:38:57.597Z,68.00
2023-12-28T13:41:25.472Z,67.45
2023-12-28T13:44:00.219Z,67.98
2023-12-28T13:46:29.374Z,68.16
2023-12-28T13:48:58.235Z,68.74
2023-12-28T13:51:26.415Z,68.79
2023-12-28T13:53:54.266Z,68.36
2023-12-28T13:56:22.364Z,67.70
2023-12-28T13:58:50.310Z,68.44
2023-12-28T14:01:18.549Z,68.08
2023-12-28T14:03:52.372Z,67.59
2023-12-28T14:06:20.595Z,67.72
2023-12-28T14:08:48.658Z,67.54
2023-12-28T14:11:16.488Z,67.89
2023-12-28T14:13:44.290Z,68.67
2023-12-28T14:16:12.195Z,69.21
2023-12-28T14:18:43.193Z,69.29
2023-12-28T14:21:13.880Z,69.39
2023-12-28T14:23:42.596Z,68.80
2023-12-28T14:26:14.846Z,69.04
2023-12-28T14:28:43.929Z,68.45
2023-12-28T14:31:12.724Z,69.09
2023-12-28T14:33:42.453Z,71.04
2023-12-28T14:36:23.317Z,72.20
2023-12-28T14:38:51.154Z,72.59
2023-12-28T14:41:18.971Z,74.61
2023-12-28T14:43:46.803Z,75.38
2023-12-28T14:46:14.646Z,75.96
2023-12-28T14:48:42.500Z,76.19
2023-12-28T14:51:10.368Z,75.98
2023-12-28T14:53:39.555Z,75.39
2023-12-28T14:56:07.746Z,75.26
2023-12-28T14:58:35.712Z,74.89
2023-12-28T15:01:03.978Z,74.98
2023-12-28T15:03:31.980Z,75.52
2023-12-28T15:06:00.096Z,75.92
2023-12-28T15:08:28.180Z,74.96
2023-12-28T15:10:58.439Z,75.90
2023-12-28T15:13:26.374Z,75.54
2023-12-28T15:15:55.185Z,75.16
2023-12-28T15:18:23.845Z,75.37
2023-12-28T15:20:52.458Z,75.12
2023-12-28T15:23:21.701Z,75.22
2023-12-28T15:25:49.632Z,74.65
2023-12-28T15:28:19.764Z,74.24
2023-12-28T15:30:47.793Z,74.17
2023-12-28T15:33:15.820Z,74.78
2023-12-28T15:35:43.757Z,73.89
2023-12-28T15:38:11.873Z,73.24
2023-12-28T15:40:39.735Z,73.59
2023-12-28T15:43:07.599Z,72.64
2023-12-28T15:45:37.342Z,72.76
2023-12-28T15:48:05.930Z,72.03
2023-12-28T15:50:33.954Z,71.39
2023-12-28T15:53:01.805Z,70.89
2023-12-28T15:55:29.860Z,70.71
2023-12-28T15:57:58.050Z,71.42
2023-12-28T16:00:27.553Z,70.62
2023-12-28T16:02:56.942Z,71.02
2023-12-28T16:05:24.833Z,70.81
2023-12-28T16:07:52.742Z,70.94
2023-12-28T16:10:20.830Z,71.15
2023-12-28T16:12:48.945Z,70.95
2023-12-28T16:15:17.307Z,70.32
2023-12-28T16:17:47.982Z,70.20
2023-12-28T16:20:18.431Z,70.80
2023-12-28T16:22:46.763Z,70.60
2023-12-28T16:25:14.789Z,69.94
2023-12-28T16:27:42.727Z,69.75
2023-12-28T16:30:11.583Z,70.67
2023-12-28T16:32:39.670Z,71.28
2023-12-28T16:35:08.436Z,71.38
2023-12-28T16:37:37.636Z,71.02
2023-12-28T16:40:10.020Z,71.20
2023-12-28T16:42:39.159Z,71.03
2023-12-28T16:45:07.816Z,71.20
2023-12-28T16:47:35.717Z,71.24
2023-12-28T16:50:04.542Z,71.35
2023-12-28T16:52:32.428Z,71.86
2023-12-28T16:55:01.724Z,72.33
2023-12-28T16:57:29.694Z,72.14
2023-12-28T17:00:07.117Z,71.59
2023-12-28T17:02:39.532Z,71.86
2023-12-28T17:05:08.815Z,71.14
2023-12-28T17:07:36.931Z,71.29
2023-12-28T17:10:07.657Z,71.68
2023-12-28T17:12:39.555Z,71.60
2023-12-28T17:15:08.987Z,71.51
2023-12-28T17:17:37.827Z,71.99
2023-12-28T17:20:07.483Z,71.51
2023-12-28T17:22:46.906Z,71.72
2023-12-28T17:25:33.623Z,72.15
2023-12-28T17:28:07.444Z,71.88
2023-12-28T17:30:37.811Z,71.48
2023-12-28T17:33:06.401Z,71.19
2023-12-28T17:35:34.753Z,71.07
2023-12-28T17:38:03.346Z,71.31
2023-12-28T17:40:33.545Z,70.62
2023-12-28T17:43:07.012Z,71.29
2023-12-28T17:45:37.228Z,70.85
2023-12-28T17:48:09.043Z,70.40
2023-12-28T17:50:38.564Z,70.47
2023-12-28T17:53:07.460Z,69.58
2023-12-28T17:55:36.985Z,69.66
2023-12-28T17:58:05.521Z,69.26
2023-12-28T18:00:33.507Z,69.02
2023-12-28T18:03:06.347Z,69.05
2023-12-28T18:05:34.295Z,68.58
2023-12-28T18:08:02.626Z,68.90
2023-12-28T18:10:30.572Z,68.83
2023-12-28T18:12:59.853Z,68.57
2023-12-28T18:15:27.755Z,67.83
2023-12-28T18:17:55.555Z,67.49
2023-12-28T18:20:23.513Z,67.67
2023-12-28T18:22:51.313Z,67.85
2023-12-28T18:25:19.183Z,67.58
2023-12-28T18:27:47.233Z,67.14
2023-12-28T18:30:16.813Z,67.46
2023-12-28T18:32:44.804Z,67.90
2023-12-28T18:35:14.231Z,67.83
2023-12-28T18:37:43.375Z,67.73
2023-12-28T18:40:12.601Z,67.23
2023-12-28T18:42:40.405Z,66.96
2023-12-28T18:45:09.810Z,66.87
2023-12-28T18:47:41.241Z,66.72
2023-12-28T18:50:09.565Z,66.68
2023-12-28T18:52:37.467Z,66.63
2023-12-28T18:55:06.350Z,66.54
2023-12-28T18:57:34.316Z,66.98
2023-12-28T19:00:02.276Z,66.55
2023-12-28T19:02:30.250Z,66.43
2023-12-28T19:04:59.666Z,66.03
2023-12-28T19:07:27.574Z,66.03
2023-12-28T19:09:55.450Z,66.69
2023-12-28T19:12:23.577Z,66.52
2023-12-28T19:14:51.503Z,66.60
2023-12-28T19:17:19.383Z,66.18
2023-12-28T19:19:47.399Z,66.89
2023-12-28T19:22:16.806Z,67.59
2023-12-28T19:24:44.683Z,68.35
2023-12-28T19:27:13.977Z,68.77
2023-12-28T19:29:41.756Z,69.15
2023-12-28T19:32:09.566Z,69.07
2023-12-28T19:34:37.389Z,68.79
2023-12-28T19:37:05.598Z,68.77
2023-12-28T19:39:35.004Z,68.56
2023-12-28T19:42:02.983Z,68.43
2023-12-28T19:44:31.256Z,68.41
2023-12-28T19:46:59.093Z,68.45
2023-12-28T19:49:28.367Z,67.94
2023-12-28T19:51:56.629Z,68.25
2023-12-28T19:54:24.498Z,68.41
2023-12-28T19:56:53.978Z,68.64
2023-12-28T19:59:21.931Z,68.93
2023-12-28T20:01:50.424Z,68.76
2023-12-28T20:04:18.676Z,68.24
2023-12-28T20:06:47.405Z,68.31
2023-12-28T20:09:15.502Z,68.31
2023-12-28T20:11:43.626Z,68.60
2023-12-28T20:14:14.438Z,68.87
2023-12-28T20:16:43.300Z,69.40
2023-12-28T20:19:11.477Z,69.65
2023-12-28T20:21:40.878Z,70.62
2023-12-28T20:24:10.505Z,70.99
2023-12-28T20:26:38.906Z,71.33
2023-12-28T20:29:08.003Z,70.38
2023-12-28T20:31:37.195Z,71.20
2023-12-28T20:34:05.238Z,71.03
2023-12-28T20:36:33.240Z,71.47
2023-12-28T20:39:01.153Z,71.91
2023-12-28T20:41:28.933Z,72.85
2023-12-28T20:43:56.773Z,73.00
2023-12-28T20:46:24.689Z,73.24
2023-12-28T20:48:53.957Z,72.65
2023-12-28T20:51:21.946Z,73.07
2023-12-28T20:53:49.866Z,73.91
2023-12-28T20:56:17.869Z,74.60
2023-12-28T20:58:46.263Z,75.02
2023-12-28T21:01:14.662Z,75.83
2023-12-28T21:03:42.459Z,76.53
2023-12-28T21:06:11.679Z,76.41
2023-12-28T21:08:39.551Z,76.50
2023-12-28T21:11:07.394Z,76.89
2023-12-28T21:13:39.547Z,76.78
2023-12-28T21:16:08.417Z,77.03
2023-12-28T21:18:36.803Z,77.70
2023-12-28T21:21:11.094Z,78.02
2023-12-28T21:23:41.932Z,78.04
2023-12-28T21:26:10.132Z,77.99
2023-12-28T21:28:38.117Z,78.16
2023-12-28T21:31:06.184Z,78.59
2023-12-28T21:33:34.511Z,78.76
2023-12-28T21:36:03.000Z,77.99
2023-12-28T21:38:30.853Z,78.01
2023-12-28T21:41:00.033Z,77.67
2023-12-28T21:43:30.376Z,77.16
2023-12-28T21:45:58.341Z,77.26
2023-12-28T21:48:26.569Z,78.22
2023-12-28T21:50:54.647Z,78.58
2023-12-28T21:53:22.698Z,80.37
2023-12-28T21:55:50.661Z,80.90
2023-12-28T21:58:20.042Z,81.00
2023-12-28T22:00:48.251Z,81.01
2023-12-28T22:03:16.276Z,81.18
2023-12-28T22:05:44.223Z,81.94
2023-12-28T22:08:13.658Z,82.67
2023-12-28T22:10:42.106Z,82.46
2023-12-28T22:13:10.090Z,83.13
2023-12-28T22:15:39.345Z,83.03
2023-12-28T22:18:09.141Z,83.19
2023-12-28T22:20:37.141Z,83.82
2023-12-28T22:23:05.165Z,84.22
2023-12-28T22:25:33.129Z,84.05
2023-12-28T22:28:01.277Z,83.63
2023-12-28T22:30:32.593Z,83.86
2023-12-28T22:33:02.187Z,84.02
2023-12-28T22:35:30.071Z,83.97
2023-12-28T22:37:58.069Z,83.97
2023-12-28T22:40:26.055Z,84.04
2023-12-28T22:42:54.454Z,83.66
2023-12-28T22:45:22.480Z,83.35
2023-12-28T22:47:50.347Z,83.49
2023-12-28T22:50:19.569Z,83.35
2023-12-28T22:52:47.397Z,82.81
2023-12-28T22:55:15.454Z,82.88
2023-12-28T22:57:43.342Z,83.27
2023-12-28T23:00:23.859Z,82.93
2023-12-28T23:02:52.546Z,82.74
2023-12-28T23:05:21.958Z,82.39
2023-12-28T23:07:50.350Z,82.43
2023-12-28T23:10:18.282Z,82.24
2023-12-28T23:12:46.168Z,82.36
2023-12-28T23:15:14.165Z,82.31
2023-12-28T23:17:41.968Z,81.74
2023-12-28T23:20:10.414Z,81.45
2023-12-28T23:22:41.753Z,81.10
2023-12-28T23:25:10.069Z,81.23
2023-12-28T23:27:37.981Z,81.14
2023-12-28T23:30:06.683Z,81.06
2023-12-28T23:32:34.498Z,80.42
2023-12-28T23:35:02.618Z,79.61
2023-12-28T23:37:30.757Z,78.52
2023-12-28T23:40:00.001Z,78.80
2023-12-28T23:42:27.802Z,78.68
2023-12-28T23:44:55.669Z,78.19
2023-12-28T23:47:23.401Z,78.01
2023-12-28T23:49:51.243Z,77.79
2023-12-28T23:52:19.080Z,76.95
2023-12-28T23:54:47.025Z,76.43
2023-12-28T23:57:16.190Z,76.89
2023-12-28T23:59:43.960Z,76.81
